createdAt,value
2023-01-12T00:00:37.930Z,6.40
2023-01-12T00:03:39.639Z,6.83
2023-01-12T00:06:41.660Z,15.20
2023-01-12T00:09:43.283Z,6.23
2023-01-12T00:12:44.856Z,8.10
2023-01-12T00:16:06.739Z,7.30
2023-01-12T00:19:18.329Z,6.57
2023-01-12T00:22:20.594Z,6.60
2023-01-12T00:25:22.183Z,7.17
2023-01-12T00:28:23.783Z,6.33
2023-01-12T00:31:25.514Z,9.10
2023-01-12T00:34:29.421Z,10.23
2023-01-12T00:37:31.317Z,6.40
2023-01-12T00:40:33.195Z,6.23
2023-01-12T00:43:53.532Z,6.13
2023-01-12T00:46:55.216Z,4.87
2023-01-12T00:49:56.812Z,5.00
2023-01-12T00:52:58.444Z,5.30
2023-01-12T00:56:04.449Z,4.90
2023-01-12T00:59:06.419Z,4.37
2023-01-12T01:02:08.234Z,4.03
2023-01-12T01:05:10.038Z,5.00
2023-01-12T01:08:12.634Z,4.90
2023-01-12T01:11:14.771Z,5.33
2023-01-12T01:14:16.588Z,4.83
2023-01-12T01:17:18.227Z,5.13
2023-01-12T01:20:20.057Z,5.40
2023-01-12T01:23:22.461Z,6.03
2023-01-12T01:26:24.794Z,5.70
2023-01-12T01:29:26.483Z,6.70
2023-01-12T01:32:28.076Z,7.03
2023-01-12T01:35:29.647Z,7.20
2023-01-12T01:38:31.566Z,5.47
2023-01-12T01:41:33.385Z,6.83
2023-01-12T01:44:44.354Z,6.00
2023-01-12T01:47:48.344Z,6.40
2023-01-12T01:50:54.384Z,5.90
2023-01-12T01:53:55.975Z,5.80
2023-01-12T01:56:57.757Z,5.60
2023-01-12T02:00:00.085Z,6.57
2023-01-12T02:03:03.126Z,7.40
2023-01-12T02:06:06.448Z,8.17
2023-01-12T02:09:15.437Z,8.17
2023-01-12T02:12:35.701Z,9.17
2023-01-12T02:16:13.434Z,9.10
2023-01-12T02:19:28.089Z,11.07
2023-01-12T02:22:48.112Z,9.03
2023-01-12T02:26:08.579Z,10.70
2023-01-12T02:29:13.417Z,11.67
2023-01-12T02:32:18.223Z,11.10
2023-01-12T02:35:24.846Z,11.33
2023-01-12T02:38:47.700Z,11.87
2023-01-12T02:42:26.823Z,11.00
2023-01-12T02:45:31.587Z,10.70
2023-01-12T02:48:48.806Z,10.67
2023-01-12T02:51:54.379Z,10.00
2023-01-12T02:54:57.386Z,10.77
2023-01-12T02:58:00.102Z,10.57
2023-01-12T03:01:02.660Z,11.87
2023-01-12T03:04:06.134Z,10.50
2023-01-12T03:07:13.900Z,9.57
2023-01-12T03:10:15.565Z,10.30
2023-01-12T03:13:17.987Z,9.50
2023-01-12T03:16:21.675Z,9.47
2023-01-12T03:19:28.081Z,10.07
2023-01-12T03:22:30.823Z,10.60
2023-01-12T03:25:34.022Z,10.13
2023-01-12T03:28:36.708Z,9.10
2023-01-12T03:31:38.690Z,11.10
2023-01-12T03:34:40.403Z,10.33
2023-01-12T03:37:50.049Z,8.70
2023-01-12T03:40:59.314Z,7.53
2023-01-12T03:44:03.767Z,11.00
2023-01-12T03:47:10.762Z,9.80
2023-01-12T03:50:17.685Z,10.50
2023-01-12T03:53:21.333Z,9.23
2023-01-12T03:56:24.517Z,8.33
2023-01-12T03:59:26.479Z,10.07
2023-01-12T04:02:28.135Z,10.43
2023-01-12T04:05:29.748Z,10.50
2023-01-12T04:08:31.730Z,11.20
2023-01-12T04:11:51.975Z,12.47
2023-01-12T04:14:53.742Z,14.30
2023-01-12T04:17:55.334Z,13.57
2023-01-12T04:20:56.917Z,13.37
2023-01-12T04:23:58.687Z,14.13
2023-01-12T04:27:00.331Z,13.03
2023-01-12T04:30:02.023Z,13.37
2023-01-12T04:33:08.025Z,18.47
2023-01-12T04:36:11.395Z,16.43
2023-01-12T04:39:13.057Z,14.90
2023-01-12T04:42:33.447Z,16.10
2023-01-12T04:45:36.664Z,13.93
2023-01-12T04:48:39.241Z,13.67
2023-01-12T04:51:40.842Z,15.23
2023-01-12T04:54:45.396Z,17.47
2023-01-12T04:57:47.091Z,16.20
2023-01-12T05:00:56.623Z,21.43
2023-01-12T05:04:06.902Z,21.30
2023-01-12T05:07:09.646Z,21.23
2023-01-12T05:10:23.587Z,23.77
2023-01-12T05:13:26.633Z,20.60
2023-01-12T05:16:30.685Z,21.60
2023-01-12T05:19:32.458Z,22.17
2023-01-12T05:22:34.118Z,19.67
2023-01-12T05:25:35.779Z,21.80
2023-01-12T05:28:37.354Z,22.33
2023-01-12T05:31:39.059Z,22.10
2023-01-12T05:34:41.691Z,26.97
2023-01-12T05:37:43.316Z,26.07
2023-01-12T05:40:46.374Z,35.77
2023-01-12T05:43:50.948Z,30.60
2023-01-12T05:46:52.668Z,34.23
2023-01-12T05:49:54.285Z,35.63
2023-01-12T05:52:56.305Z,32.73
2023-01-12T05:55:58.353Z,40.77
2023-01-12T05:59:00.993Z,40.57
2023-01-12T06:02:02.610Z,41.83
2023-01-12T06:05:08.368Z,39.03
2023-01-12T06:08:09.969Z,42.37
2023-01-12T06:11:31.763Z,35.87
2023-01-12T06:14:33.407Z,35.27
2023-01-12T06:17:35.082Z,36.43
2023-01-12T06:20:36.835Z,37.13
2023-01-12T06:23:38.435Z,41.53
2023-01-12T06:26:40.212Z,36.70
2023-01-12T06:29:42.155Z,41.47
2023-01-12T06:32:43.763Z,38.60
2023-01-12T06:35:48.184Z,42.70
2023-01-12T06:38:49.802Z,38.80
2023-01-12T06:42:10.151Z,44.93
2023-01-12T06:45:12.369Z,41.73
2023-01-12T06:48:14.171Z,40.27
2023-01-12T06:51:15.790Z,42.27
2023-01-12T06:54:18.676Z,71.20
2023-01-12T06:57:20.590Z,50.80
2023-01-12T07:00:22.815Z,48.40
2023-01-12T07:03:24.422Z,47.97
2023-01-12T07:06:26.040Z,47.23
2023-01-12T07:09:27.640Z,44.37
2023-01-12T07:12:29.332Z,45.07
2023-01-12T07:15:30.973Z,49.33
2023-01-12T07:18:32.654Z,48.37
2023-01-12T07:21:34.315Z,48.73
2023-01-12T07:24:35.961Z,48.20
2023-01-12T07:27:37.608Z,53.47
2023-01-12T07:30:39.303Z,49.83
2023-01-12T07:33:40.895Z,48.40
2023-01-12T07:36:42.780Z,53.67
2023-01-12T07:39:44.421Z,50.60
2023-01-12T07:42:46.054Z,48.63
2023-01-12T07:45:47.698Z,48.27
2023-01-12T07:48:49.362Z,48.83
2023-01-12T07:51:52.586Z,49.30
2023-01-12T07:54:54.290Z,49.93
2023-01-12T07:57:57.141Z,47.77
2023-01-12T08:01:02.286Z,50.67
2023-01-12T08:04:04.268Z,58.37
2023-01-12T08:07:06.054Z,60.13
2023-01-12T08:10:08.370Z,59.50
2023-01-12T08:13:10.062Z,58.40
2023-01-12T08:16:17.185Z,56.23
2023-01-12T08:19:21.771Z,42.43
2023-01-12T08:22:27.464Z,38.53
2023-01-12T08:25:34.051Z,36.60
2023-01-12T08:28:40.720Z,37.80
2023-01-12T08:31:42.871Z,31.10
2023-01-12T08:34:46.959Z,33.13
2023-01-12T08:37:48.893Z,25.43
2023-01-12T08:41:09.224Z,29.67
2023-01-12T08:44:11.247Z,26.57
2023-01-12T08:47:20.769Z,27.37
2023-01-12T08:50:22.643Z,27.63
2023-01-12T08:53:24.384Z,25.77
2023-01-12T08:56:26.094Z,24.83
2023-01-12T08:59:28.071Z,37.10
2023-01-12T09:02:29.774Z,34.13
2023-01-12T09:05:31.391Z,26.77
2023-01-12T09:08:33.010Z,28.27
2023-01-12T09:11:35.783Z,28.93
2023-01-12T09:14:39.037Z,23.57
2023-01-12T09:17:40.747Z,28.53
2023-01-12T09:20:42.688Z,21.53
2023-01-12T09:23:44.896Z,19.97
2023-01-12T09:26:47.236Z,19.90
2023-01-12T09:29:48.856Z,18.20
2023-01-12T09:32:50.751Z,15.80
2023-01-12T09:35:52.294Z,17.80
2023-01-12T09:38:55.883Z,16.60
2023-01-12T09:42:16.846Z,15.40
2023-01-12T09:45:39.053Z,14.30
2023-01-12T09:48:40.924Z,14.70
2023-01-12T09:51:49.147Z,9.70
2023-01-12T09:54:53.909Z,8.63
2023-01-12T09:58:10.988Z,10.90
2023-01-12T10:01:24.068Z,10.17
2023-01-12T10:04:29.678Z,9.37
2023-01-12T10:07:31.348Z,10.33
2023-01-12T10:10:36.667Z,10.37
2023-01-12T10:13:44.727Z,9.27
2023-01-12T10:17:04.457Z,10.10
2023-01-12T10:20:23.032Z,18.53
2023-01-12T10:23:26.707Z,18.23
2023-01-12T10:26:33.432Z,15.83
2023-01-12T10:29:35.059Z,11.00
2023-01-12T10:32:42.052Z,10.30
2023-01-12T10:36:02.632Z,12.07
2023-01-12T10:39:04.825Z,14.70
2023-01-12T10:42:32.677Z,13.63
2023-01-12T10:45:34.359Z,10.50
2023-01-12T10:48:38.853Z,8.73
2023-01-12T10:51:49.281Z,25.53
2023-01-12T10:54:50.940Z,15.60
2023-01-12T10:57:52.862Z,10.73
2023-01-12T11:00:54.903Z,7.87
2023-01-12T11:04:04.074Z,14.13
2023-01-12T11:07:10.934Z,23.97
2023-01-12T11:10:20.678Z,10.80
2023-01-12T11:13:24.463Z,68.87
2023-01-12T11:16:32.180Z,46.03
2023-01-12T11:19:41.664Z,27.93
2023-01-12T11:22:45.054Z,69.43
2023-01-12T11:25:48.039Z,12.47
2023-01-12T11:28:52.228Z,14.13
2023-01-12T11:31:55.862Z,22.40
2023-01-12T11:34:59.367Z,16.00
2023-01-12T11:38:03.571Z,13.73
2023-01-12T11:41:08.127Z,20.23
2023-01-12T11:44:16.139Z,41.80
2023-01-12T11:47:25.980Z,81.53
2023-01-12T11:50:37.472Z,54.40
2023-01-12T11:53:41.586Z,21.53
2023-01-12T11:56:46.555Z,16.03
2023-01-12T11:59:54.061Z,20.73
2023-01-12T12:03:05.958Z,18.17
2023-01-12T12:06:23.107Z,17.47
2023-01-12T12:09:27.791Z,12.60
2023-01-12T12:12:29.524Z,10.90
2023-01-12T12:15:39.637Z,6.63
2023-01-12T12:19:02.204Z,9.10
2023-01-12T12:22:04.218Z,22.03
2023-01-12T12:25:14.148Z,65.87
2023-01-12T12:28:18.918Z,33.10
2023-01-12T12:31:26.560Z,40.67
2023-01-12T12:34:45.752Z,32.60
2023-01-12T12:37:52.671Z,16.43
2023-01-12T12:41:19.086Z,9.83
2023-01-12T12:44:58.327Z,11.67
2023-01-12T12:48:05.748Z,16.00
2023-01-12T12:51:11.705Z,12.97
2023-01-12T12:54:17.197Z,19.03
2023-01-12T12:57:18.889Z,17.60
2023-01-12T13:00:28.413Z,18.93
2023-01-12T13:03:39.297Z,17.03
2023-01-12T13:06:44.710Z,14.87
2023-01-12T13:09:46.736Z,15.40
2023-01-12T13:12:57.140Z,9.57
2023-01-12T13:16:17.889Z,7.70
2023-01-12T13:19:39.790Z,15.30
2023-01-12T13:22:41.448Z,14.57
2023-01-12T13:25:43.290Z,15.13
2023-01-12T13:28:44.966Z,15.20
2023-01-12T13:31:46.632Z,15.73
2023-01-12T13:34:48.693Z,12.97
2023-01-12T13:37:55.145Z,10.27
2023-01-12T13:41:38.710Z,13.60
2023-01-12T13:44:43.051Z,11.30
2023-01-12T13:47:45.828Z,13.23
2023-01-12T13:50:51.976Z,15.73
2023-01-12T13:53:58.248Z,13.03
2023-01-12T13:57:02.265Z,15.93
2023-01-12T14:00:08.663Z,27.70
2023-01-12T14:03:26.708Z,14.83
2023-01-12T14:06:31.679Z,25.57
2023-01-12T14:09:42.711Z,12.20
2023-01-12T14:12:59.537Z,54.73
2023-01-12T14:16:20.897Z,12.93
2023-01-12T14:19:27.209Z,10.70
2023-01-12T14:22:28.866Z,24.80
2023-01-12T14:25:30.602Z,13.87
2023-01-12T14:28:33.120Z,25.50
2023-01-12T14:31:39.376Z,22.00
2023-01-12T14:34:47.338Z,15.27
2023-01-12T14:37:54.031Z,19.53
2023-01-12T14:40:58.506Z,22.70
2023-01-12T14:44:19.019Z,13.83
2023-01-12T14:47:25.485Z,17.93
2023-01-12T14:50:27.405Z,19.70
2023-01-12T14:53:38.445Z,15.67
2023-01-12T14:56:50.044Z,13.37
2023-01-12T14:59:51.895Z,13.10
2023-01-12T15:02:55.146Z,14.70
2023-01-12T15:05:56.815Z,15.57
2023-01-12T15:09:00.603Z,13.67
2023-01-12T15:12:20.953Z,12.00
2023-01-12T15:15:50.688Z,14.50
2023-01-12T15:19:10.921Z,11.30
2023-01-12T15:22:38.769Z,30.47
2023-01-12T15:25:41.356Z,13.43
2023-01-12T15:28:43.341Z,17.57
2023-01-12T15:31:44.975Z,11.93
2023-01-12T15:34:47.362Z,10.97
2023-01-12T15:37:49.534Z,14.10
2023-01-12T15:40:51.349Z,12.13
2023-01-12T15:43:53.071Z,16.40
2023-01-12T15:46:54.747Z,16.83
2023-01-12T15:50:02.087Z,17.77
2023-01-12T15:53:05.665Z,20.53
2023-01-12T15:56:11.384Z,23.37
2023-01-12T15:59:13.069Z,25.70
2023-01-12T16:02:25.346Z,27.17
2023-01-12T16:05:30.077Z,25.10
2023-01-12T16:08:31.765Z,26.03
2023-01-12T16:11:33.449Z,26.50
2023-01-12T16:14:35.172Z,40.30
2023-01-12T16:17:36.759Z,28.33
2023-01-12T16:20:38.427Z,20.10
2023-01-12T16:23:40.736Z,17.57
2023-01-12T16:26:42.422Z,16.70
2023-01-12T16:29:44.415Z,15.47
2023-01-12T16:32:46.949Z,20.60
2023-01-12T16:35:48.993Z,19.30
2023-01-12T16:38:51.217Z,20.47
2023-01-12T16:41:57.111Z,19.43
2023-01-12T16:44:59.488Z,19.80
2023-01-12T16:48:02.041Z,18.20
2023-01-12T16:51:03.809Z,16.47
2023-01-12T16:54:05.400Z,15.23
2023-01-12T16:57:09.098Z,18.47
2023-01-12T17:00:11.202Z,17.83
2023-01-12T17:03:14.187Z,19.07
2023-01-12T17:06:16.356Z,22.20
2023-01-12T17:09:18.437Z,28.00
2023-01-12T17:12:20.235Z,35.43
2023-01-12T17:15:22.112Z,35.20
2023-01-12T17:18:27.358Z,34.37
2023-01-12T17:21:29.097Z,34.00
2023-01-12T17:24:31.481Z,32.60
2023-01-12T17:27:33.729Z,31.00
2023-01-12T17:30:35.504Z,21.07
2023-01-12T17:33:37.721Z,25.70
2023-01-12T17:36:42.668Z,30.57
2023-01-12T17:39:44.404Z,25.53
2023-01-12T17:43:07.770Z,31.23
2023-01-12T17:46:22.890Z,30.27
2023-01-12T17:49:26.700Z,29.40
2023-01-12T17:52:28.374Z,30.50
2023-01-12T17:55:31.679Z,28.87
2023-01-12T17:58:33.401Z,35.13
2023-01-12T18:01:40.446Z,25.80
2023-01-12T18:04:44.114Z,24.67
2023-01-12T18:07:48.036Z,19.10
2023-01-12T18:10:52.871Z,22.10
2023-01-12T18:13:54.756Z,17.50
2023-01-12T18:17:00.395Z,16.20
2023-01-12T18:20:05.340Z,13.53
2023-01-12T18:23:07.017Z,13.70
2023-01-12T18:26:11.090Z,18.57
2023-01-12T18:29:14.017Z,15.17
2023-01-12T18:32:15.676Z,15.57
2023-01-12T18:35:17.387Z,16.47
2023-01-12T18:38:19.087Z,17.60
2023-01-12T18:41:40.029Z,22.13
2023-01-12T18:44:41.667Z,17.90
2023-01-12T18:48:02.144Z,18.33
2023-01-12T18:51:22.689Z,19.77
2023-01-12T18:54:27.196Z,22.43
2023-01-12T18:57:33.229Z,21.77
2023-01-12T19:00:34.816Z,21.33
2023-01-12T19:03:36.620Z,20.90
2023-01-12T19:06:44.508Z,24.07
2023-01-12T19:09:48.504Z,23.60
2023-01-12T19:12:50.252Z,22.13
2023-01-12T19:16:10.584Z,22.47
2023-01-12T19:19:13.222Z,24.87
2023-01-12T19:22:33.355Z,24.90
2023-01-12T19:25:54.722Z,25.30
2023-01-12T19:28:56.373Z,27.83
2023-01-12T19:32:01.094Z,29.53
2023-01-12T19:35:11.555Z,26.63
2023-01-12T19:38:14.342Z,25.63
2023-01-12T19:41:37.106Z,20.43
2023-01-12T19:44:38.771Z,22.03
2023-01-12T19:47:40.469Z,19.73
2023-01-12T19:50:45.607Z,21.53
2023-01-12T19:53:47.234Z,19.73
2023-01-12T19:56:48.861Z,19.77
2023-01-12T19:59:50.525Z,19.80
2023-01-12T20:02:52.719Z,21.70
2023-01-12T20:05:57.097Z,21.90
2023-01-12T20:08:58.727Z,26.00
2023-01-12T20:12:04.320Z,24.03
2023-01-12T20:15:07.132Z,25.23
2023-01-12T20:18:09.081Z,27.50
2023-01-12T20:21:11.817Z,25.33
2023-01-12T20:24:20.711Z,27.10
2023-01-12T20:27:22.489Z,25.70
2023-01-12T20:30:38.323Z,24.03
2023-01-12T20:33:40.596Z,26.93
2023-01-12T20:36:45.505Z,26.40
2023-01-12T20:39:54.570Z,28.47
2023-01-12T20:42:56.202Z,27.90
2023-01-12T20:45:57.822Z,30.53
2023-01-12T20:49:02.305Z,29.20
2023-01-12T20:52:04.098Z,36.07
2023-01-12T20:55:07.050Z,30.93
2023-01-12T20:58:13.586Z,30.67
2023-01-12T21:01:15.693Z,29.10
2023-01-12T21:04:20.539Z,27.37
2023-01-12T21:07:22.225Z,25.10
2023-01-12T21:10:28.147Z,18.10
2023-01-12T21:13:29.819Z,16.67
2023-01-12T21:16:37.269Z,14.60
2023-01-12T21:19:39.001Z,15.63
2023-01-12T21:22:40.825Z,13.43
2023-01-12T21:25:49.302Z,16.17
2023-01-12T21:28:59.313Z,15.90
2023-01-12T21:32:05.027Z,15.93
2023-01-12T21:35:07.669Z,14.90
2023-01-12T21:38:09.793Z,13.90
2023-01-12T21:41:12.424Z,14.40
2023-01-12T21:44:14.578Z,14.33
2023-01-12T21:47:16.531Z,15.13
2023-01-12T21:50:25.441Z,15.40
2023-01-12T21:53:32.811Z,15.10
2023-01-12T21:56:34.578Z,15.60
2023-01-12T21:59:38.503Z,17.17
2023-01-12T22:02:44.026Z,17.90
2023-01-12T22:05:47.832Z,25.43
2023-01-12T22:08:49.525Z,22.53
2023-01-12T22:11:51.152Z,21.50
2023-01-12T22:14:52.737Z,17.57
2023-01-12T22:17:57.246Z,17.63
2023-01-12T22:21:02.478Z,19.97
2023-01-12T22:24:04.244Z,13.30
2023-01-12T22:27:05.874Z,11.00
2023-01-12T22:30:08.357Z,14.53
2023-01-12T22:33:11.246Z,9.87
2023-01-12T22:36:14.801Z,9.13
2023-01-12T22:39:16.439Z,9.47
2023-01-12T22:42:18.184Z,9.17
2023-01-12T22:45:22.950Z,8.40
2023-01-12T22:48:25.475Z,8.67
2023-01-12T22:51:31.394Z,10.67
2023-01-12T22:54:33.028Z,11.63
2023-01-12T22:57:34.729Z,8.10
2023-01-12T23:00:39.820Z,7.73
2023-01-12T23:03:44.269Z,8.33
2023-01-12T23:06:45.906Z,8.40
2023-01-12T23:09:47.515Z,8.50
2023-01-12T23:13:07.738Z,8.73
2023-01-12T23:16:10.784Z,9.57
2023-01-12T23:19:15.434Z,8.73
2023-01-12T23:22:17.030Z,9.67
2023-01-12T23:25:18.582Z,13.40
2023-01-12T23:28:20.105Z,13.27
2023-01-12T23:31:22.871Z,11.97
2023-01-12T23:34:28.911Z,13.37
2023-01-12T23:37:30.522Z,17.10
2023-01-12T23:40:34.474Z,12.37
2023-01-12T23:43:36.045Z,11.13
2023-01-12T23:46:38.289Z,9.83
2023-01-12T23:49:39.988Z,8.10
2023-01-12T23:52:41.586Z,6.80
2023-01-12T23:55:43.165Z,6.80
2023-01-12T23:58:45.078Z,6.67
